Flight Track Log - Related Links

Times and Time Zones

All times are in EST time to prevent confusion due to time zone crossing. See the SWA2048 flight status page for this flight to view local times or setup timezone preferences in your user account.

Time Position Orientation Groundspeed Altitude Reporting Facility
EST Latitude Longitude Course Direction KTS MPH feet Rate Location/Type
Fri 08:01:35 AM 39.1333 -76.7167 270° West 241 277 4,400  Level Potomac TRACON
Fri 08:02:36 AM 39.1667 -76.7833 303° West 276 318 6,700 2,826 Climbing Potomac TRACON
Fri 08:03:36 AM 39.2000 -76.8833 293° West 294 338 10,100 3,300 Climbing Potomac TRACON
Fri 08:04:36 AM 39.2167 -76.9833 282° West 309 356 13,300 2,749 Climbing Potomac TRACON
Fri 08:06:59 AM 39.1211 -77.2369 244° Southwest 360 414 19,400 2,601 Climbing Washington Center
Fri 08:07:59 AM 39.0756 -77.3642 245° Southwest 365 420 22,100 2,650 Climbing Washington Center
Fri 08:08:59 AM 39.0422 -77.4917 251° West 378 435 24,700 2,492 Climbing Washington Center
Fri 08:09:57 AM 39.0044 -77.6378 252° West 393 452 27,000 1,950 Climbing Washington Center
Fri 08:10:59 AM 38.9686 -77.7756 252° West 405 466 28,600 1,328 Climbing Washington Center
Fri 08:11:59 AM 38.9350 -77.9000 251° West 410 472 29,700 1,339 Climbing Washington Center
Fri 08:13:00 AM 38.8967 -78.0428 251° West 415 478 31,300 1,866 Climbing Washington Center
Fri 08:13:58 AM 38.8581 -78.2042 253° West 426 490 33,400 1,678 Climbing Washington Center
Fri 08:14:58 AM 38.8506 -78.3425 266° West 433 498 34,600 1,884 Climbing Washington Center
Fri 08:15:59 AM 38.8492 -78.4997 269° West 433 498 37,200 1,700 Climbing Washington Center
Fri 08:16:58 AM 38.8475 -78.6436 269° West 426 490 38,000 403 Climbing Washington Center
Fri 08:17:58 AM 38.8478 -78.7928 270° West 421 484 38,000  Level Washington Center
Fri 08:18:59 AM 38.8439 -78.9447 268° West 421 484 38,000  Level Washington Center
Fri 08:19:59 AM 38.8417 -79.0939 269° West 421 484 38,000  Level Washington Center
Fri 08:20:59 AM 38.8392 -79.2403 269° West 421 484 38,000  Level Washington Center
Fri 08:21:58 AM 38.8367 -79.3922 269° West 421 484 38,000  Level Washington Center
Fri 08:22:58 AM 38.8339 -79.5411 269° West 421 484 38,000  Level Washington Center
Fri 08:23:59 AM 38.8322 -79.7144 269° West 435 501 38,000  Level Washington Center
Fri 08:25:00 AM 38.8275 -79.8500 267° West 440 506 38,000  Level Washington Center
Fri 08:25:55 AM 38.8217 -79.9903 267° West 427 491 38,000  Level Indianapolis Center
Fri 08:26:57 AM 38.8183 -80.1447 268° West 429 494 38,000  Level Indianapolis Center
Fri 08:27:59 AM 38.8147 -80.2989 268° West 430 495 38,000  Level Indianapolis Center
Fri 08:29:00 AM 38.8086 -80.4839 268° West 430 495 38,000  Level Indianapolis Center
Fri 08:30:02 AM 38.8044 -80.6375 268° West 430 495 38,000  Level Indianapolis Center
Fri 08:31:04 AM 38.7992 -80.7906 268° West 430 495 38,000  Level Indianapolis Center
Fri 08:32:06 AM 38.7942 -80.9422 268° West 430 495 38,000  Level Indianapolis Center
Fri 08:33:07 AM 38.7889 -81.0944 268° West 429 494 38,000  Level Indianapolis Center
Fri 08:34:09 AM 38.7850 -81.2442 268° West 428 493 38,000  Level Indianapolis Center
Fri 08:35:11 AM 38.7789 -81.3931 267° West 425 489 38,000  Level Indianapolis Center
Fri 08:36:13 AM 38.7733 -81.5494 267° West 422 486 38,000  Level Indianapolis Center
Fri 08:37:14 AM 38.7675 -81.7128 267° West 422 486 38,000 49 Level Indianapolis Center
Fri 08:38:16 AM 38.7614 -81.8611 267° West 422 486 38,100 484 Climbing Indianapolis Center
Fri 08:39:18 AM 38.7550 -82.0114 267° West 422 486 39,000 871 Climbing Indianapolis Center
Fri 08:40:20 AM 38.7489 -82.1644 267° West 423 487 39,900 488 Climbing Indianapolis Center
Fri 08:41:21 AM 38.7431 -82.3469 268° West 427 491 40,000 49 Climbing Indianapolis Center
Fri 08:42:23 AM 38.7361 -82.4992 267° West 427 491 40,000  Level Indianapolis Center
Fri 08:43:25 AM 38.7297 -82.6503 267° West 427 491 40,000  Level Indianapolis Center
Fri 08:44:27 AM 38.7231 -82.8014 267° West 426 490 40,000  Level Indianapolis Center
Fri 08:45:29 AM 38.7164 -82.9514 267° West 425 489 40,000  Level Indianapolis Center
Fri 08:46:30 AM 38.7097 -83.0997 267° West 422 486 40,000  Level Indianapolis Center
Fri 08:47:32 AM 38.7025 -83.2700 267° West 421 484 40,000  Level Indianapolis Center
Fri 08:48:34 AM 38.6956 -83.4203 267° West 421 484 40,000  Level Indianapolis Center
Fri 08:49:36 AM 38.6878 -83.5708 266° West 421 484 40,000  Level Indianapolis Center
Fri 08:50:38 AM 38.6800 -83.7228 266° West 423 487 40,000  Level Indianapolis Center
Fri 08:51:39 AM 38.6728 -83.8722 267° West 423 487 40,000  Level Indianapolis Center
Fri 08:52:41 AM 38.6642 -84.0197 266° West 421 484 40,000  Level Indianapolis Center
Fri 08:53:43 AM 38.6567 -84.1692 266° West 421 484 40,000  Level Indianapolis Center
Fri 08:54:45 AM 38.6492 -84.3494 267° West 422 486 40,000  Level Indianapolis Center
Fri 08:55:47 AM 38.6606 -84.4994 276° West 422 486 40,000  Level Indianapolis Center
Fri 08:56:48 AM 38.6672 -84.6436 273° West 423 487 40,000  Level Indianapolis Center
Fri 08:57:50 AM 38.6769 -84.7931 275° West 423 487 40,000  Level Indianapolis Center
Fri 08:58:52 AM 38.6858 -84.9417 274° West 423 487 40,000  Level Indianapolis Center
Fri 08:59:54 AM 38.6958 -85.1203 274° West 423 487 40,000  Level Indianapolis Center
Fri 09:00:56 AM 38.7044 -85.2694 274° West 423 487 40,000  Level Indianapolis Center
Fri 09:01:58 AM 38.7111 -85.4189 273° West 423 487 40,000  Level Indianapolis Center
Fri 09:03:00 AM 38.7183 -85.5675 274° West 422 486 40,000  Level Indianapolis Center
Fri 09:04:01 AM 38.7267 -85.7189 274° West 422 486 40,000  Level Indianapolis Center
Fri 09:05:03 AM 38.7339 -85.8664 274° West 422 486 40,000  Level Indianapolis Center
Fri 09:06:05 AM 38.7408 -86.0181 273° West 422 486 40,000  Level Indianapolis Center
Fri 09:07:07 AM 38.7492 -86.1981 273° West 422 486 40,000  Level Indianapolis Center
Fri 09:08:09 AM 38.7558 -86.3481 273° West 422 486 40,000  Level Indianapolis Center
Fri 09:09:11 AM 38.7619 -86.4972 273° West 422 486 40,000  Level Indianapolis Center
Fri 09:10:13 AM 38.7675 -86.6475 273° West 421 484 40,000  Level Indianapolis Center
Fri 09:11:15 AM 38.7733 -86.7986 273° West 422 486 40,000  Level Indianapolis Center
Fri 09:12:17 AM 38.7797 -86.9511 273° West 425 489 40,000  Level Indianapolis Center
Fri 09:13:19 AM 38.7861 -87.1042 273° West 427 491 40,000  Level Indianapolis Center
Fri 09:14:21 AM 38.7925 -87.2867 273° West 427 491 40,000  Level Indianapolis Center
Fri 09:15:23 AM 38.7972 -87.4381 272° West 427 491 40,000  Level Indianapolis Center
Fri 09:16:25 AM 38.8025 -87.5894 273° West 427 491 40,000  Level Indianapolis Center
Fri 09:17:27 AM 38.8072 -87.7394 272° West 426 490 40,000  Level Indianapolis Center
Fri 09:18:29 AM 38.8128 -87.8894 273° West 425 489 40,000  Level Indianapolis Center
Fri 09:19:31 AM 38.8172 -88.0372 272° West 420 483 40,000  Level Indianapolis Center
Fri 09:20:26 AM 38.8186 -88.1861 271° West 417 480 40,000  Level Kansas Center
Fri 09:21:27 AM 38.8211 -88.3311 271° West 410 472 40,000  Level Kansas Center
Fri 09:22:29 AM 38.8425 -88.4722 281° West 406 467 40,000  Level Kansas Center
Fri 09:23:31 AM 38.8739 -88.6106 286° West 405 466 40,000  Level Kansas Center
Fri 09:24:33 AM 38.9083 -88.7606 286° West 405 466 40,000  Level Kansas Center
Fri 09:25:35 AM 38.9369 -88.8983 285° West 405 466 40,000  Level Kansas Center
Fri 09:26:36 AM 38.9692 -89.0381 287° West 405 466 40,000  Level Kansas Center
Fri 09:27:38 AM 38.9986 -89.1772 285° West 405 466 40,000  Level Kansas Center
Fri 09:28:40 AM 39.0347 -89.3444 286° West 405 466 40,000  Level Kansas Center
Fri 09:29:42 AM 39.0642 -89.4858 285° West 409 471 40,000  Level Kansas Center
Fri 09:30:44 AM 39.0944 -89.6275 285° West 411 473 40,000  Level Kansas Center
Fri 09:31:46 AM 39.1247 -89.7692 285° West 411 473 40,000  Level Kansas Center
Fri 09:32:48 AM 39.1544 -89.9117 285° West 412 474 40,000  Level Kansas Center
Fri 09:33:50 AM 39.1897 -90.0842 285° West 416 479 40,000  Level Kansas Center
Fri 09:34:52 AM 39.2183 -90.2272 285° West 416 479 40,000  Level Kansas Center
Fri 09:35:53 AM 39.2483 -90.3697 285° West 416 479 40,000  Level Kansas Center
Fri 09:36:55 AM 39.2767 -90.5117 285° West 416 479 40,000  Level Kansas Center
Fri 09:37:57 AM 39.3047 -90.6519 285° West 414 476 40,000  Level Kansas Center
Fri 09:38:59 AM 39.3319 -90.7914 284° West 408 470 40,000  Level Kansas Center
Fri 09:40:01 AM 39.3656 -90.9583 285° West 407 468 40,000  Level Kansas Center
Fri 09:41:03 AM 39.3919 -91.0975 284° West 403 464 40,000  Level Kansas Center
Fri 09:42:05 AM 39.4189 -91.2367 284° West 402 463 40,000  Level Kansas Center
Fri 09:43:07 AM 39.4464 -91.3753 284° West 402 463 40,000  Level Kansas Center
Fri 09:44:09 AM 39.4736 -91.5156 284° West 402 463 40,000  Level Kansas Center
Fri 09:45:11 AM 39.5061 -91.6858 284° West 403 464 40,000  Level Kansas Center
Fri 09:46:13 AM 39.5331 -91.8297 284° West 405 466 40,000  Level Kansas Center
Fri 09:47:15 AM 39.5614 -91.9717 285° West 405 466 40,000  Level Kansas Center
Fri 09:48:17 AM 39.5878 -92.1158 283° West 407 468 40,000  Level Kansas Center
Fri 09:49:19 AM 39.6142 -92.2614 283° West 410 472 40,000 -581 Level Kansas Center
Fri 09:50:21 AM 39.6414 -92.4078 284° West 414 476 38,800 -1,839 Descending Kansas Center
Fri 09:51:23 AM 39.6539 -92.5514 276° West 413 475 36,200 -2,323 Descending Kansas Center
Fri 09:52:25 AM 39.6525 -92.7150 269° West 395 455 34,000 -1,113 Descending Kansas Center
Fri 09:53:27 AM 39.6494 -92.8503 268° West 383 441 33,900 -1,645 Descending Kansas Center
Fri 09:54:29 AM 39.6469 -92.9883 269° West 382 440 30,600 -2,855 Descending Kansas Center
Fri 09:55:31 AM 39.6439 -93.1294 268° West 386 444 28,000 -2,516 Descending Kansas Center
Fri 09:56:33 AM 39.6425 -93.2678 269° West 386 444 25,400 -2,516 Descending Kansas Center
Fri 09:57:35 AM 39.6400 -93.4019 269° West 379 436 22,800 -2,758 Descending Kansas Center
Fri 09:58:37 AM 39.6361 -93.5589 268° West 369 425 19,700 -2,736 Descending Kansas Center
Fri 09:59:40 AM 39.6342 -93.6875 269° West 364 419 17,100 -2,516 Descending Kansas Center
Fri 10:00:41 AM 39.6314 -93.8206 268° West 358 412 14,500 -2,439 Descending Kansas Center
Fri 10:01:43 AM 39.6022 -93.9297 251° West 348 400 12,100 -1,500 Descending Kansas Center
Fri 10:02:45 AM 39.5481 -94.0347 236° Southwest 315 362 11,400 -1,065 Descending Kansas Center
Fri 10:03:47 AM 39.5139 -94.1239 244° Southwest 295 339 9,900 -1,488 Descending Kansas Center
Fri 10:04:50 AM 39.5014 -94.2353 262° West 281 323 8,300 -1,440 Descending Kansas Center
Fri 10:05:52 AM 39.4939 -94.3286 264° West 277 319 6,900 -1,113 Descending Kansas Center
Fri 10:06:54 AM 39.4864 -94.4328 265° West 264 304 6,000 -919 Descending Kansas Center
Fri 10:07:56 AM 39.4792 -94.5150 264° West 251 289 5,000 -968 Descending Kansas Center
Fri 10:08:58 AM 39.4600 -94.5978 253° West 226 260 4,000 -968 Descending Kansas Center
Fri 10:10:00 AM 39.4322 -94.6481 234° Southwest 195 224 3,000 -581 Descending Kansas Center
Fri 10:11:02 AM 39.3931 -94.6756 208° Southwest 160 184 2,800 -387 Descending Kansas Center
Fri 10:12:04 AM 39.3606 -94.6844 192° South 139 160 2,200 -629 Descending Kansas Center
Fri 10:13:06 AM 39.3281 -94.6947 194° South 118 136 1,500 -528 Descending Kansas Center
Fri 10:14:09 AM 39.2992 -94.7017 191° South 116 133 1,100 -381 Descending Kansas Center

Login

Don't have an account? Register now (free) for customized features, flight alerts, and more!